Time;durP1;ratioP1;P1;durP2;ratioP2;P2;SDS_P1;SDS_P2;PMS_P1;PMS_P2;Temp;Humidity;BMP_temperature;BMP_pressure;BME280_temperature;BME280_humidity;BME280_pressure;Samples;Min_cycle;Max_cycle;Signal;HPM_P1;HPM_P2
2021/01/30 00:02:27;;;;;;;3.95;1.10;;;9.80;99.90;;;;;;5078203;28;20837;-86
2021/01/30 00:04:56;;;;;;;2.83;1.00;;;9.90;99.90;;;;;;5072085;28;20198;-85
2021/01/30 00:07:27;;;;;;;3.13;1.25;;;9.60;99.90;;;;;;5057970;28;20695;-87
2021/01/30 00:09:56;;;;;;;3.33;0.77;;;9.50;99.90;;;;;;5059043;28;20661;-86
2021/01/30 00:12:23;;;;;;;6.80;0.95;;;9.60;99.90;;;;;;5066547;28;20486;-86
2021/01/30 00:15:04;;;;;;;3.05;0.80;;;9.20;99.90;;;;;;5066475;28;20579;-86
2021/01/30 00:17:41;;;;;;;2.60;0.95;;;9.60;99.90;;;;;;5063539;28;20202;-88
2021/01/30 00:20:12;;;;;;;3.58;0.90;;;9.70;99.90;;;;;;5061366;28;20563;-88
2021/01/30 00:22:38;;;;;;;2.70;1.00;;;9.70;99.90;;;;;;5059521;28;20202;-87
2021/01/30 00:25:09;;;;;;;2.72;0.98;;;9.70;99.90;;;;;;5059228;28;20207;-86
2021/01/30 00:27:41;;;;;;;3.20;0.80;;;9.70;99.90;;;;;;5071976;28;20197;-88
2021/01/30 00:30:14;;;;;;;3.45;1.20;;;9.70;99.90;;;;;;5074489;28;20729;-87
2021/01/30 00:32:48;;;;;;;2.85;0.80;;;9.60;99.90;;;;;;5078790;28;20183;-87
2021/01/30 00:35:28;;;;;;;3.85;1.00;;;9.60;99.90;;;;;;5058591;28;20210;-88
2021/01/30 00:38:00;;;;;;;2.85;1.35;;;9.60;99.90;;;;;;5062230;28;20187;-87
2021/01/30 00:40:27;;;;;;;3.45;1.00;;;9.40;99.90;;;;;;5070655;28;20214;-87
2021/01/30 00:46:00;;;;;;;2.92;1.00;;;9.30;99.90;;;;;;5072663;28;20210;-87
2021/01/30 00:48:28;;;;;;;3.75;0.88;;;9.30;99.90;;;;;;5084905;28;20353;-86
2021/01/30 00:50:59;;;;;;;2.30;0.80;;;9.30;99.90;;;;;;5078284;28;20198;-87
2021/01/30 00:53:28;;;;;;;2.70;0.70;;;9.40;99.90;;;;;;5078270;28;20218;-87
2021/01/30 00:55:55;;;;;;;1.90;0.52;;;8.90;99.90;;;;;;5075334;28;20931;-87
2021/01/30 00:58:24;;;;;;;3.28;0.98;;;9.30;99.90;;;;;;5077343;28;20232;-86
2021/01/30 01:00:56;;;;;;;3.08;0.98;;;9.30;99.90;;;;;;5077454;28;20876;-86
2021/01/30 01:03:27;;;;;;;3.30;1.17;;;9.00;99.90;;;;;;5078451;28;20205;-87
2021/01/30 01:05:59;;;;;;;4.97;1.00;;;9.20;99.90;;;;;;5064042;28;20577;-87
2021/01/30 01:08:26;;;;;;;5.85;1.08;;;9.30;99.90;;;;;;5074544;28;20367;-86
2021/01/30 01:10:56;;;;;;;3.25;0.95;;;9.30;99.90;;;;;;5079108;28;20616;-86
2021/01/30 01:13:29;;;;;;;2.37;0.77;;;9.20;99.90;;;;;;5079347;28;20202;-86
2021/01/30 01:16:07;;;;;;;3.70;0.95;;;9.10;99.90;;;;;;5079346;28;20491;-86
2021/01/30 01:18:49;;;;;;;3.97;0.95;;;8.70;99.90;;;;;;5080011;28;20545;-85
2021/01/30 01:21:24;;;;;;;3.95;0.95;;;9.00;99.90;;;;;;5079986;28;20210;-85
2021/01/30 01:24:00;;;;;;;3.38;1.10;;;9.00;99.90;;;;;;5060689;28;20206;-86
2021/01/30 01:26:28;;;;;;;3.13;0.95;;;9.00;99.90;;;;;;5066866;28;20200;-86
2021/01/30 01:28:58;;;;;;;4.00;0.80;;;9.10;99.90;;;;;;5079685;28;20241;-86
2021/01/30 01:31:28;;;;;;;2.75;0.90;;;8.70;99.90;;;;;;5063141;28;20199;-86
2021/01/30 01:34:00;;;;;;;3.50;0.90;;;9.00;99.90;;;;;;5072340;28;20207;-86
2021/01/30 01:36:29;;;;;;;3.78;0.95;;;9.00;99.90;;;;;;5068831;28;20448;-86
2021/01/30 01:39:01;;;;;;;2.30;0.80;;;8.90;99.90;;;;;;5078996;28;20226;-85
2021/01/30 01:41:30;;;;;;;2.80;0.93;;;9.10;99.90;;;;;;5078746;28;20479;-86
2021/01/30 01:44:05;;;;;;;2.40;0.70;;;9.30;99.90;;;;;;5078901;28;20682;-86
2021/01/30 01:46:37;;;;;;;4.60;0.93;;;9.20;99.90;;;;;;5068555;28;20201;-86
2021/01/30 01:49:20;;;;;;;2.80;0.90;;;9.20;99.90;;;;;;5079557;28;20773;-85
2021/01/30 01:55:02;;;;;;;3.15;0.75;;;9.10;99.90;;;;;;5083027;28;20226;-86
2021/01/30 01:57:41;;;;;;;3.42;1.50;;;9.10;99.90;;;;;;5077539;28;20206;-85
2021/01/30 02:00:26;;;;;;;2.70;0.77;;;9.10;99.90;;;;;;5080427;28;20233;-85
2021/01/30 02:03:01;;;;;;;2.97;0.90;;;9.00;99.90;;;;;;5089375;28;20196;-85
2021/01/30 02:05:40;;;;;;;2.58;0.70;;;9.30;99.90;;;;;;5093804;28;20464;-85
2021/01/30 02:08:23;;;;;;;2.40;0.68;;;9.30;99.90;;;;;;5087050;28;20221;-86
2021/01/30 02:10:53;;;;;;;3.03;0.60;;;9.10;99.90;;;;;;5077898;28;20202;-86
2021/01/30 02:13:38;;;;;;;;;;;;;;;;;;;;;
2021/01/30 02:16:27;;;;;;;3.10;0.80;;;9.10;99.90;;;;;;5078377;28;20296;-86
2021/01/30 02:19:12;;;;;;;4.40;0.85;;;9.00;99.90;;;;;;5078392;28;20457;-85
2021/01/30 02:22:21;;;;;;;2.63;0.60;;;9.10;99.90;;;;;;5117771;22;20228;-83
2021/01/30 02:25:25;;;;;;;4.38;0.98;;;9.20;99.90;;;;;;5129692;28;20260;-80
2021/01/30 02:28:19;;;;;;;3.53;0.65;;;9.20;99.90;;;;;;5121457;28;20685;-83
2021/01/30 02:31:17;;;;;;;3.65;0.85;;;9.10;99.90;;;;;;5120522;28;20204;-81
2021/01/30 02:34:14;;;;;;;3.20;1.88;;;9.00;99.90;;;;;;5132613;28;20196;-79
2021/01/30 02:36:49;;;;;;;2.85;0.75;;;9.10;99.90;;;;;;5127834;28;20221;-80
2021/01/30 02:39:21;;;;;;;2.92;0.75;;;9.10;99.90;;;;;;5119285;27;20612;-81
2021/01/30 02:41:53;;;;;;;2.20;0.60;;;9.10;99.90;;;;;;5101487;28;20231;-82
2021/01/30 02:44:23;;;;;;;2.10;0.60;;;9.10;99.90;;;;;;5118702;28;20548;-83
2021/01/30 02:46:54;;;;;;;4.65;0.75;;;9.00;99.90;;;;;;5101948;28;20797;-83
2021/01/30 02:49:26;;;;;;;2.00;0.60;;;8.90;99.90;;;;;;5110885;28;20312;-82
2021/01/30 02:52:03;;;;;;;2.00;0.50;;;9.00;99.90;;;;;;5121090;28;20224;-82
2021/01/30 02:54:32;;;;;;;2.10;0.50;;;8.90;99.90;;;;;;5121351;28;20474;-83
2021/01/30 02:56:59;;;;;;;2.00;0.50;;;8.80;99.90;;;;;;5119934;28;20493;-84
2021/01/30 02:59:28;;;;;;;2.90;0.60;;;9.00;99.90;;;;;;5114904;28;20685;-82
2021/01/30 03:01:54;;;;;;;2.35;0.60;;;8.90;99.90;;;;;;5117934;28;20600;-82
2021/01/30 03:04:26;;;;;;;2.20;0.50;;;8.70;99.90;;;;;;5118336;28;20246;-80
2021/01/30 03:07:17;;;;;;;2.65;0.60;;;8.70;99.90;;;;;;5119644;28;20892;-82
2021/01/30 03:09:51;;;;;;;2.85;0.60;;;8.70;99.90;;;;;;5119544;28;20553;-85
2021/01/30 03:12:30;;;;;;;2.33;0.50;;;8.60;99.90;;;;;;5128388;28;20210;-81
2021/01/30 03:15:01;;;;;;;2.88;0.70;;;8.80;99.90;;;;;;5127837;28;20275;-83
2021/01/30 03:17:31;;;;;;;2.00;0.50;;;8.80;99.90;;;;;;5120215;28;20223;-83
2021/01/30 03:19:59;;;;;;;2.08;0.57;;;8.80;99.90;;;;;;5116959;28;20671;-81
2021/01/30 03:22:30;;;;;;;2.10;0.55;;;8.50;99.90;;;;;;5117573;28;20231;-82
2021/01/30 03:24:58;;;;;;;2.00;0.63;;;8.80;99.90;;;;;;5115827;28;20189;-80
2021/01/30 03:27:30;;;;;;;2.53;0.60;;;8.60;99.90;;;;;;5113814;28;20670;-80
2021/01/30 03:29:58;;;;;;;1.70;0.40;;;8.60;99.90;;;;;;5116903;28;20544;-80
2021/01/30 03:32:25;;;;;;;5.63;0.73;;;8.90;99.90;;;;;;5123823;27;20207;-80
2021/01/30 03:34:53;;;;;;;3.55;0.50;;;8.70;99.90;;;;;;5120298;28;20205;-81
2021/01/30 03:37:20;;;;;;;2.45;0.77;;;8.80;99.90;;;;;;5128857;28;20252;-79
2021/01/30 03:39:48;;;;;;;2.13;0.60;;;8.70;99.90;;;;;;5130685;27;20235;-79
2021/01/30 03:42:15;;;;;;;2.58;0.70;;;8.90;99.90;;;;;;5130959;28;20283;-80
2021/01/30 03:44:41;;;;;;;2.33;0.65;;;8.90;99.90;;;;;;5133232;28;20231;-81
2021/01/30 03:47:07;;;;;;;2.95;0.60;;;8.90;99.90;;;;;;5135581;28;20237;-80
2021/01/30 03:49:34;;;;;;;2.50;0.70;;;8.80;99.90;;;;;;5135665;28;20231;-82
2021/01/30 03:52:01;;;;;;;4.43;0.90;;;9.00;99.90;;;;;;5136258;28;20250;-80
2021/01/30 03:54:27;;;;;;;2.30;0.75;;;9.00;99.90;;;;;;5132597;28;20235;-80
2021/01/30 03:56:54;;;;;;;2.20;0.73;;;8.80;99.90;;;;;;5133737;28;20240;-80
2021/01/30 03:59:22;;;;;;;3.67;0.65;;;8.90;99.90;;;;;;5125429;28;20818;-84
2021/01/30 04:01:48;;;;;;;2.10;0.60;;;8.80;99.90;;;;;;5122564;28;20232;-81
2021/01/30 04:04:16;;;;;;;2.45;0.80;;;8.80;99.90;;;;;;5121149;28;20681;-83
2021/01/30 04:06:47;;;;;;;2.47;0.75;;;8.80;99.90;;;;;;5121184;28;20659;-82
2021/01/30 04:09:15;;;;;;;3.00;0.50;;;8.80;99.90;;;;;;5119406;27;20201;-81
2021/01/30 04:11:42;;;;;;;2.22;0.60;;;8.90;99.90;;;;;;5112932;28;20236;-80
2021/01/30 04:14:10;;;;;;;2.85;0.70;;;9.10;99.90;;;;;;5123108;28;20279;-81
2021/01/30 04:16:37;;;;;;;3.40;0.80;;;8.90;99.90;;;;;;5121541;28;20204;-82
2021/01/30 04:19:04;;;;;;;2.40;0.70;;;8.70;99.90;;;;;;5119994;28;20497;-84
2021/01/30 04:21:31;;;;;;;4.30;0.60;;;8.90;99.90;;;;;;5120506;28;20231;-83
2021/01/30 04:23:57;;;;;;;2.50;0.70;;;8.70;99.90;;;;;;5120893;28;20666;-83
2021/01/30 04:26:24;;;;;;;1.90;0.60;;;8.80;99.90;;;;;;5120846;28;20748;-81
2021/01/30 04:28:52;;;;;;;3.28;0.70;;;8.90;99.90;;;;;;5121240;28;20450;-84
2021/01/30 04:31:19;;;;;;;2.97;0.75;;;8.90;99.90;;;;;;5112122;28;20225;-81
2021/01/30 04:33:47;;;;;;;3.25;0.82;;;8.70;99.90;;;;;;5106126;28;20294;-80
2021/01/30 04:36:14;;;;;;;2.35;0.60;;;8.60;99.90;;;;;;5108894;27;20269;-81
2021/01/30 04:38:40;;;;;;;2.53;0.70;;;8.60;99.90;;;;;;5104926;28;20227;-81
2021/01/30 04:41:13;;;;;;;2.63;0.70;;;8.90;99.90;;;;;;5120502;27;20272;-81
2021/01/30 04:43:44;;;;;;;3.13;1.08;;;9.00;99.90;;;;;;5098854;28;20890;-81
2021/01/30 04:46:17;;;;;;;3.72;0.90;;;8.90;99.90;;;;;;5117993;28;20219;-81
2021/01/30 04:49:01;;;;;;;2.47;0.88;;;8.70;99.90;;;;;;5116844;28;20242;-81
2021/01/30 04:51:34;;;;;;;3.70;0.77;;;8.90;99.90;;;;;;5115079;28;20231;-82
2021/01/30 04:54:20;;;;;;;5.88;0.90;;;9.00;99.90;;;;;;5116716;28;20205;-81
2021/01/30 04:57:04;;;;;;;3.55;0.80;;;8.70;99.90;;;;;;5116887;28;20200;-81
2021/01/30 04:59:38;;;;;;;3.50;1.10;;;8.80;99.90;;;;;;5115480;28;21372;-81
2021/01/30 05:02:12;;;;;;;4.80;1.05;;;8.60;99.90;;;;;;5116349;28;20224;-82
2021/01/30 05:04:42;;;;;;;2.80;0.90;;;8.90;99.90;;;;;;5116163;28;20209;-81
2021/01/30 05:07:18;;;;;;;5.43;0.85;;;8.80;99.90;;;;;;5116718;28;20573;-82
2021/01/30 05:09:52;;;;;;;3.50;0.80;;;8.80;99.90;;;;;;5115423;28;20208;-82
2021/01/30 05:12:27;;;;;;;4.32;1.10;;;9.10;99.90;;;;;;5105287;28;20203;-82
2021/01/30 05:15:00;;;;;;;3.80;0.90;;;9.00;99.90;;;;;;5117771;28;20214;-81
2021/01/30 05:17:30;;;;;;;4.72;1.35;;;8.90;99.90;;;;;;5116578;28;20200;-82
2021/01/30 05:20:03;;;;;;;7.10;1.35;;;8.70;99.90;;;;;;5103686;28;20211;-81
2021/01/30 05:22:35;;;;;;;4.65;1.13;;;8.80;99.90;;;;;;5123159;28;20219;-81
2021/01/30 05:25:03;;;;;;;4.15;1.20;;;8.80;99.90;;;;;;5106514;28;20185;-81
2021/01/30 05:27:46;;;;;;;6.68;2.00;;;8.80;99.90;;;;;;5117694;28;20204;-82
2021/01/30 05:30:16;;;;;;;2.83;0.70;;;8.70;99.90;;;;;;5103321;28;20227;-81
2021/01/30 05:33:05;;;;;;;4.78;1.25;;;8.90;99.90;;;;;;5118733;28;20273;-81
2021/01/30 05:35:39;;;;;;;3.10;1.00;;;8.90;99.90;;;;;;5106566;27;20250;-81
2021/01/30 05:38:19;;;;;;;5.18;1.35;;;8.90;99.90;;;;;;5117130;28;20650;-80
2021/01/30 05:40:50;;;;;;;4.15;1.35;;;8.90;99.90;;;;;;5110688;28;20229;-81
2021/01/30 05:43:23;;;;;;;6.22;1.13;;;8.80;99.90;;;;;;5135019;28;20197;-79
2021/01/30 05:45:52;;;;;;;4.97;1.15;;;8.90;99.90;;;;;;5138158;28;20199;-79
2021/01/30 05:48:22;;;;;;;9.98;1.35;;;8.80;99.90;;;;;;5126636;28;20201;-81
2021/01/30 05:50:56;;;;;;;4.95;1.42;;;8.80;99.90;;;;;;5119860;28;20263;-83
2021/01/30 05:53:24;;;;;;;5.38;1.20;;;8.80;99.90;;;;;;5118289;28;20326;-84
2021/01/30 05:55:52;;;;;;;4.28;1.42;;;9.00;99.90;;;;;;5118713;28;20206;-84
2021/01/30 05:58:21;;;;;;;10.60;1.50;;;8.90;99.90;;;;;;5118225;28;20196;-83
2021/01/30 06:00:48;;;;;;;6.38;1.60;;;8.80;99.90;;;;;;5118038;28;20231;-83
2021/01/30 06:03:17;;;;;;;7.07;1.50;;;8.90;99.90;;;;;;5118483;28;20686;-84
2021/01/30 06:05:45;;;;;;;6.20;1.45;;;8.80;99.90;;;;;;5105883;28;20216;-82
2021/01/30 06:08:24;;;;;;;6.82;1.38;;;8.90;99.90;;;;;;5115986;28;20678;-81
2021/01/30 06:10:54;;;;;;;5.05;1.30;;;8.90;99.90;;;;;;5118627;28;20277;-81
2021/01/30 06:13:23;;;;;;;5.88;1.88;;;8.90;99.90;;;;;;5119958;28;20200;-83
2021/01/30 06:15:53;;;;;;;5.35;1.40;;;8.90;99.90;;;;;;5106966;27;20288;-83
2021/01/30 06:18:33;;;;;;;4.80;1.17;;;9.00;99.90;;;;;;5120352;28;20201;-83
2021/01/30 06:21:03;;;;;;;5.38;1.30;;;8.80;99.90;;;;;;5122980;28;20252;-83
2021/01/30 06:23:31;;;;;;;6.50;1.58;;;8.80;99.90;;;;;;5124501;28;20291;-81
2021/01/30 06:26:10;;;;;;;5.07;1.30;;;9.00;99.90;;;;;;5124302;28;20677;-81
2021/01/30 06:28:39;;;;;;;6.30;1.67;;;8.80;99.90;;;;;;5121332;28;20673;-80
2021/01/30 06:31:12;;;;;;;9.82;1.80;;;8.80;99.90;;;;;;5117525;28;20222;-81
2021/01/30 06:33:45;;;;;;;7.38;2.40;;;8.90;99.90;;;;;;5117122;28;20212;-80
2021/01/30 06:36:14;;;;;;;13.93;2.05;;;9.10;99.90;;;;;;5116350;28;20231;-81
2021/01/30 06:38:45;;;;;;;6.80;1.40;;;8.90;99.90;;;;;;5115001;28;20232;-81
2021/01/30 06:41:19;;;;;;;7.93;1.85;;;8.80;99.90;;;;;;5108735;28;20225;-79
2021/01/30 06:43:48;;;;;;;7.38;1.77;;;9.20;99.90;;;;;;5106054;28;20224;-81
2021/01/30 06:46:17;;;;;;;6.65;2.00;;;8.90;99.90;;;;;;5117594;28;20293;-80
2021/01/30 06:48:46;;;;;;;7.07;1.80;;;9.00;99.90;;;;;;5116819;28;20281;-81
2021/01/30 06:51:26;;;;;;;7.53;1.80;;;8.80;99.90;;;;;;5117432;28;20231;-81
2021/01/30 06:53:54;;;;;;;6.05;1.60;;;8.80;99.90;;;;;;5122625;28;20226;-81
2021/01/30 06:56:25;;;;;;;9.88;1.98;;;8.90;99.90;;;;;;5127168;28;20421;-82
2021/01/30 06:59:01;;;;;;;8.98;1.90;;;8.80;99.90;;;;;;5129278;28;20252;-80
2021/01/30 07:01:39;;;;;;;6.22;2.10;;;8.70;99.90;;;;;;5123029;28;20249;-83
2021/01/30 07:04:23;;;;;;;7.70;2.38;;;8.80;99.90;;;;;;5124464;28;20208;-82
2021/01/30 07:06:58;;;;;;;6.53;1.80;;;8.80;99.90;;;;;;5103274;28;20201;-80
2021/01/30 07:09:37;;;;;;;4.57;1.40;;;8.90;99.90;;;;;;5116374;28;20200;-78
2021/01/30 07:12:15;;;;;;;5.45;1.83;;;8.70;99.90;;;;;;5112682;28;20285;-82
2021/01/30 07:15:03;;;;;;;8.63;2.72;;;8.90;99.90;;;;;;5106618;28;20279;-81
2021/01/30 07:17:51;;;;;;;8.70;1.70;;;8.80;99.90;;;;;;5114860;28;20223;-80
2021/01/30 07:20:28;;;;;;;8.88;2.63;;;8.80;99.90;;;;;;5116209;28;20319;-81
2021/01/30 07:22:59;;;;;;;8.93;2.15;;;8.70;99.90;;;;;;5116211;28;20263;-83
2021/01/30 07:25:31;;;;;;;9.27;2.60;;;9.00;99.90;;;;;;5124390;28;20213;-82
2021/01/30 07:28:04;;;;;;;11.57;3.13;;;8.80;99.90;;;;;;5110871;28;20230;-79
2021/01/30 07:30:42;;;;;;;5.28;2.33;;;9.00;99.90;;;;;;5132545;28;20216;-82
2021/01/30 07:33:14;;;;;;;6.65;1.80;;;8.80;99.90;;;;;;5133569;28;20188;-79
2021/01/30 07:35:49;;;;;;;9.40;1.70;;;8.90;99.90;;;;;;5133970;28;20208;-81
2021/01/30 07:38:21;;;;;;;7.68;1.85;;;8.90;99.90;;;;;;5133970;28;20199;-81
2021/01/30 07:40:55;;;;;;;10.20;2.20;;;9.10;99.90;;;;;;5130216;28;20219;-81
2021/01/30 07:43:25;;;;;;;7.63;1.77;;;9.00;99.90;;;;;;5119386;28;20579;-82
2021/01/30 07:45:57;;;;;;;12.23;2.53;;;9.10;99.90;;;;;;5127866;28;20208;-82
2021/01/30 07:48:26;;;;;;;10.45;2.25;;;8.90;99.90;;;;;;5129909;28;20197;-82
2021/01/30 07:50:56;;;;;;;10.30;2.13;;;9.20;99.90;;;;;;5127508;28;20665;-83
2021/01/30 07:53:25;;;;;;;6.15;1.65;;;9.20;99.90;;;;;;5119084;28;20193;-83
2021/01/30 07:56:13;;;;;;;7.60;2.05;;;9.00;99.90;;;;;;5118414;28;20211;-84
2021/01/30 07:59:06;;;;;;;7.22;1.83;;;9.30;99.90;;;;;;5118110;28;20796;-83
2021/01/30 08:02:04;;;;;;;8.00;2.08;;;9.20;99.90;;;;;;5098011;28;20276;-84
2021/01/30 08:04:50;;;;;;;5.53;2.20;;;9.40;99.90;;;;;;5112369;28;20211;-82
2021/01/30 08:07:32;;;;;;;6.25;2.50;;;9.30;99.90;;;;;;5115247;28;20276;-82
2021/01/30 08:10:04;;;;;;;8.90;2.17;;;9.30;99.90;;;;;;5105340;28;20205;-82
2021/01/30 08:12:47;;;;;;;10.07;2.72;;;9.30;99.90;;;;;;5111392;28;20671;-82
2021/01/30 08:15:19;;;;;;;9.63;3.03;;;9.30;99.90;;;;;;5113841;28;20232;-81
2021/01/30 08:18:07;;;;;;;10.48;2.13;;;9.40;99.90;;;;;;5116469;28;20212;-81
2021/01/30 08:20:39;;;;;;;12.45;2.83;;;9.50;99.90;;;;;;5108967;28;20268;-82
2021/01/30 08:23:11;;;;;;;12.00;2.70;;;9.50;99.90;;;;;;5128433;22;20221;-84
2021/01/30 08:25:48;;;;;;;6.32;2.33;;;9.40;99.90;;;;;;5110777;28;20844;-85
2021/01/30 08:28:23;;;;;;;8.75;2.33;;;9.50;99.90;;;;;;5119938;28;20322;-85
2021/01/30 08:30:52;;;;;;;9.35;2.28;;;9.60;99.90;;;;;;5116663;28;20284;-85
2021/01/30 08:33:19;;;;;;;8.18;2.28;;;9.10;99.90;;;;;;5102344;28;20228;-83
2021/01/30 08:35:52;;;;;;;11.00;2.55;;;9.70;99.90;;;;;;5106067;28;20336;-83
2021/01/30 08:38:35;;;;;;;8.95;2.03;;;9.30;99.90;;;;;;5124244;28;20272;-83
2021/01/30 08:41:27;;;;;;;10.27;3.43;;;9.80;99.90;;;;;;5124456;28;20189;-84
2021/01/30 08:43:55;;;;;;;7.00;2.20;;;9.60;99.90;;;;;;5103233;28;20503;-84
2021/01/30 08:46:31;;;;;;;7.50;1.80;;;9.60;99.90;;;;;;5115335;28;20529;-84
2021/01/30 08:49:21;;;;;;;9.93;1.80;;;9.80;99.90;;;;;;5112308;28;20546;-84
2021/01/30 08:51:50;;;;;;;9.50;2.47;;;9.70;99.90;;;;;;5112166;28;20485;-79
2021/01/30 08:54:38;;;;;;;10.70;2.22;;;9.60;99.90;;;;;;5104005;28;20211;-81
2021/01/30 08:57:26;;;;;;;6.93;2.80;;;9.70;99.90;;;;;;5096489;28;20215;-79
2021/01/30 08:59:54;;;;;;;8.40;2.27;;;9.50;99.90;;;;;;5094857;28;20533;-84
2021/01/30 09:02:48;;;;;;;9.80;2.60;;;9.80;99.90;;;;;;5101423;28;20497;-85
2021/01/30 09:05:42;;;;;;;7.60;2.42;;;9.60;99.90;;;;;;5107984;28;20471;-84
2021/01/30 09:09:01;;;;;;;9.98;3.05;;;9.70;99.90;;;;;;5094913;28;20606;-85
2021/01/30 09:11:49;;;;;;;6.32;2.28;;;9.70;99.90;;;;;;5104146;28;20232;-85
2021/01/30 09:14:42;;;;;;;10.17;2.73;;;9.90;99.90;;;;;;5109922;28;20204;-84
2021/01/30 09:17:29;;;;;;;8.75;2.90;;;9.80;99.90;;;;;;5115221;28;20438;-88
2021/01/30 09:20:16;;;;;;;6.17;2.50;;;9.80;99.90;;;;;;5098541;28;20201;-86
2021/01/30 09:22:58;;;;;;;8.53;2.37;;;9.80;99.90;;;;;;5095562;28;20495;-84
2021/01/30 09:25:37;;;;;;;8.32;2.25;;;10.00;99.90;;;;;;5115027;28;20469;-83
2021/01/30 09:28:07;;;;;;;11.48;3.60;;;9.60;99.90;;;;;;5108493;28;20205;-83
2021/01/30 09:30:39;;;;;;;7.55;2.78;;;9.90;99.90;;;;;;5123978;28;20280;-86
2021/01/30 09:33:14;;;;;;;9.07;2.60;;;9.90;99.90;;;;;;5118582;28;20224;-85
2021/01/30 09:35:44;;;;;;;9.03;2.60;;;9.90;99.90;;;;;;5108141;28;20466;-86
2021/01/30 09:38:26;;;;;;;7.57;2.30;;;9.80;99.90;;;;;;5114218;28;20439;-85
2021/01/30 09:41:07;;;;;;;9.70;2.80;;;9.80;99.90;;;;;;5125302;28;20497;-85
2021/01/30 09:43:33;;;;;;;11.57;2.67;;;9.90;99.90;;;;;;5116393;28;20484;-86
2021/01/30 09:46:03;;;;;;;10.20;2.80;;;9.90;99.90;;;;;;5120541;28;20481;-85
2021/01/30 09:48:31;;;;;;;9.20;2.77;;;10.10;99.90;;;;;;5116993;28;20458;-87
2021/01/30 09:51:00;;;;;;;11.33;3.00;;;10.00;99.90;;;;;;5109807;28;20990;-86
2021/01/30 09:53:32;;;;;;;14.97;4.10;;;10.00;99.90;;;;;;5107271;28;20481;-86
2021/01/30 09:56:06;;;;;;;8.68;2.95;;;9.80;99.90;;;;;;5110588;28;20455;-87
2021/01/30 09:58:35;;;;;;;10.90;3.10;;;10.10;99.90;;;;;;5094399;28;20212;-86
2021/01/30 10:01:08;;;;;;;10.90;2.70;;;10.20;99.90;;;;;;5099653;28;20537;-87
2021/01/30 10:03:39;;;;;;;8.20;3.60;;;10.30;99.90;;;;;;5101989;28;20537;-79
2021/01/30 10:06:12;;;;;;;6.40;2.80;;;10.30;99.90;;;;;;5111457;28;20461;-79
2021/01/30 10:08:38;;;;;;;8.83;2.30;;;10.30;99.90;;;;;;5101969;28;21075;-80
2021/01/30 10:11:07;;;;;;;7.70;2.20;;;10.30;99.90;;;;;;5107784;28;20451;-80
2021/01/30 10:13:34;;;;;;;12.10;3.17;;;10.40;99.90;;;;;;5111493;28;20458;-80
2021/01/30 10:16:03;;;;;;;8.30;2.53;;;10.60;99.90;;;;;;5114133;28;21018;-81
2021/01/30 10:18:34;;;;;;;7.53;2.87;;;10.60;99.90;;;;;;5116157;28;20456;-82
2021/01/30 10:21:03;;;;;;;8.43;2.70;;;10.70;99.90;;;;;;5107012;28;20541;-87
2021/01/30 10:23:32;;;;;;;9.07;2.80;;;10.60;99.90;;;;;;5111679;28;20991;-84
2021/01/30 10:26:12;;;;;;;9.10;3.00;;;10.60;99.90;;;;;;5114534;28;20442;-84
2021/01/30 10:28:44;;;;;;;8.83;2.40;;;10.60;99.90;;;;;;5111148;28;20489;-80
2021/01/30 10:31:11;;;;;;;13.43;3.10;;;10.20;99.90;;;;;;5104601;28;20458;-78
2021/01/30 10:33:40;;;;;;;12.87;2.80;;;10.50;99.90;;;;;;5099546;28;20451;-79
2021/01/30 10:36:08;;;;;;;6.63;2.30;;;10.50;99.90;;;;;;5101798;28;20531;-79
2021/01/30 10:38:35;;;;;;;9.13;2.70;;;10.40;99.90;;;;;;5089504;28;20501;-79
2021/01/30 10:41:06;;;;;;;13.37;3.23;;;10.50;99.90;;;;;;5091115;28;20498;-84
2021/01/30 10:43:35;;;;;;;7.03;2.20;;;10.40;99.90;;;;;;5109632;28;20478;-80
2021/01/30 10:46:04;;;;;;;9.23;2.30;;;10.40;99.90;;;;;;5109848;28;20515;-79
2021/01/30 10:48:34;;;;;;;9.80;2.77;;;10.50;99.90;;;;;;5107565;28;20458;-79
2021/01/30 10:51:03;;;;;;;8.40;2.97;;;10.50;99.90;;;;;;5102508;28;20461;-78
2021/01/30 10:53:32;;;;;;;10.47;2.97;;;10.40;99.90;;;;;;5097303;28;20519;-77
2021/01/30 10:56:00;;;;;;;13.50;3.57;;;10.40;99.90;;;;;;5100427;28;20505;-79
2021/01/30 10:58:32;;;;;;;8.10;2.73;;;10.40;99.90;;;;;;5101878;28;20985;-79
2021/01/30 11:01:03;;;;;;;8.30;2.60;;;10.40;99.90;;;;;;5099762;28;20970;-79
2021/01/30 11:03:42;;;;;;;9.63;4.20;;;10.40;99.90;;;;;;5108896;28;20517;-78
2021/01/30 11:06:22;;;;;;;7.30;2.57;;;10.30;99.90;;;;;;5101785;28;20460;-78
2021/01/30 11:08:51;;;;;;;6.37;2.10;;;10.40;99.90;;;;;;5102940;28;20540;-79
2021/01/30 11:11:25;;;;;;;8.50;2.08;;;10.40;99.90;;;;;;5103044;28;20546;-79
2021/01/30 11:13:52;;;;;;;6.40;2.10;;;10.50;99.90;;;;;;5089417;28;20214;-79
2021/01/30 11:16:26;;;;;;;9.47;2.93;;;10.60;99.90;;;;;;5104301;28;21032;-80
2021/01/30 11:18:53;;;;;;;5.30;1.90;;;10.60;99.90;;;;;;5098754;28;20554;-79
2021/01/30 11:21:32;;;;;;;6.13;1.83;;;10.70;99.90;;;;;;5107434;28;20541;-80
2021/01/30 11:24:15;;;;;;;14.40;2.83;;;10.70;99.90;;;;;;5089677;28;20512;-80
2021/01/30 11:26:43;;;;;;;9.90;2.60;;;10.70;99.90;;;;;;5098877;28;20471;-80
2021/01/30 11:29:41;;;;;;;11.63;2.30;;;10.80;99.90;;;;;;5102205;28;20481;-80
2021/01/30 11:32:11;;;;;;;11.30;2.90;;;10.90;99.90;;;;;;5094640;28;21437;-83
2021/01/30 11:34:38;;;;;;;8.97;2.30;;;10.60;99.90;;;;;;5101998;28;20498;-83
2021/01/30 11:37:05;;;;;;;8.23;2.30;;;10.50;99.90;;;;;;5104950;28;21215;-83
2021/01/30 11:39:36;;;;;;;7.00;2.10;;;10.40;99.90;;;;;;5109602;28;20482;-83
2021/01/30 11:42:03;;;;;;;17.07;7.13;;;10.30;99.90;;;;;;5103482;28;20493;-83
2021/01/30 11:44:29;;;;;;;8.40;3.33;;;10.40;99.90;;;;;;5095677;28;20455;-81
2021/01/30 11:46:58;;;;;;;10.10;2.37;;;10.50;99.90;;;;;;5106611;28;20458;-81
2021/01/30 11:49:24;;;;;;;8.30;2.10;;;10.60;99.90;;;;;;5110018;28;20462;-79
2021/01/30 11:51:52;;;;;;;9.57;2.87;;;10.50;99.90;;;;;;5093253;28;20471;-81
2021/01/30 11:54:19;;;;;;;9.20;3.30;;;10.40;99.90;;;;;;5112385;28;20513;-83
2021/01/30 11:56:46;;;;;;;9.87;2.47;;;10.30;99.90;;;;;;5112885;28;20450;-80
2021/01/30 11:59:13;;;;;;;9.37;2.27;;;10.20;99.90;;;;;;5111767;28;20480;-82
2021/01/30 12:01:40;;;;;;;10.83;3.40;;;9.70;99.90;;;;;;5114178;28;20611;-80
2021/01/30 12:04:10;;;;;;;11.93;2.70;;;10.10;99.90;;;;;;5115231;28;20458;-79
2021/01/30 12:06:36;;;;;;;7.37;2.53;;;10.10;99.90;;;;;;5114197;28;20975;-80
2021/01/30 12:09:04;;;;;;;8.90;1.90;;;10.20;99.90;;;;;;5111696;28;20458;-79
2021/01/30 12:11:30;;;;;;;5.10;1.50;;;10.30;99.90;;;;;;5115599;28;20639;-86
2021/01/30 12:13:58;;;;;;;5.40;1.67;;;10.30;99.90;;;;;;5116244;28;20718;-86
2021/01/30 12:16:26;;;;;;;6.87;2.07;;;10.40;99.90;;;;;;5096829;28;20489;-85
2021/01/30 12:18:52;;;;;;;8.10;1.90;;;10.30;99.90;;;;;;5106074;28;20447;-83
2021/01/30 12:21:19;;;;;;;8.37;1.83;;;10.40;99.90;;;;;;5115468;28;20481;-84
2021/01/30 12:23:58;;;;;;;8.57;2.03;;;10.40;99.90;;;;;;5115258;28;20547;-85
2021/01/30 12:26:34;;;;;;;5.93;1.90;;;10.30;99.90;;;;;;5119546;28;20957;-85
2021/01/30 12:29:01;;;;;;;5.10;1.33;;;10.20;99.90;;;;;;5112995;28;20479;-85
2021/01/30 12:31:28;;;;;;;5.77;2.70;;;10.00;99.90;;;;;;5120072;28;20553;-85
2021/01/30 12:33:54;;;;;;;12.93;2.53;;;9.80;99.90;;;;;;5122953;28;20813;-85
2021/01/30 12:36:20;;;;;;;12.90;2.57;;;9.70;99.90;;;;;;5120076;28;20215;-84
2021/01/30 12:38:47;;;;;;;8.35;2.50;;;9.80;99.90;;;;;;5122875;28;20469;-84
2021/01/30 12:41:13;;;;;;;7.32;2.60;;;9.80;99.90;;;;;;5100150;28;20287;-81
2021/01/30 12:43:39;;;;;;;9.70;3.88;;;9.60;99.90;;;;;;5109342;28;20233;-80
2021/01/30 12:46:07;;;;;;;11.13;2.87;;;9.50;99.90;;;;;;5094282;28;20215;-80
2021/01/30 12:48:34;;;;;;;10.23;2.70;;;9.60;99.90;;;;;;5112931;28;20503;-81
2021/01/30 12:51:00;;;;;;;10.27;2.93;;;9.70;99.90;;;;;;5108535;28;20484;-83
2021/01/30 12:53:26;;;;;;;10.23;3.07;;;9.60;99.90;;;;;;5104417;28;20455;-80
2021/01/30 12:55:53;;;;;;;10.30;3.23;;;9.60;99.90;;;;;;5106646;28;20457;-85
2021/01/30 12:58:22;;;;;;;8.27;2.50;;;9.90;99.90;;;;;;5131989;28;20451;-85
2021/01/30 13:00:50;;;;;;;8.03;3.00;;;9.80;99.90;;;;;;5114087;28;20434;-85
2021/01/30 13:03:17;;;;;;;5.30;2.33;;;9.70;99.90;;;;;;5100278;28;20556;-85
2021/01/30 13:05:44;;;;;;;7.13;2.17;;;9.60;99.90;;;;;;5116980;28;20446;-79
2021/01/30 13:08:11;;;;;;;8.60;2.63;;;9.60;99.90;;;;;;5116345;28;20461;-85
2021/01/30 13:10:37;;;;;;;7.77;3.07;;;9.20;99.90;;;;;;5128281;28;20479;-82
2021/01/30 13:13:05;;;;;;;9.55;4.25;;;9.40;99.90;;;;;;5126261;28;20657;-86
2021/01/30 13:15:32;;;;;;;8.20;2.50;;;9.70;99.90;;;;;;5112312;28;20203;-83
2021/01/30 13:17:59;;;;;;;8.57;3.07;;;9.60;99.90;;;;;;5102509;28;20611;-87
2021/01/30 13:20:26;;;;;;;10.70;2.20;;;9.50;99.90;;;;;;5106783;28;20485;-82
2021/01/30 13:22:54;;;;;;;5.13;2.33;;;9.60;99.90;;;;;;5118197;28;20484;-88
2021/01/30 13:25:21;;;;;;;7.40;2.00;;;9.50;99.90;;;;;;5119226;28;20506;-86
2021/01/30 13:27:47;;;;;;;8.67;2.83;;;9.50;99.90;;;;;;5098356;28;20487;-87
2021/01/30 13:30:17;;;;;;;5.97;2.42;;;9.60;99.90;;;;;;5104880;28;20500;-81
2021/01/30 13:32:44;;;;;;;12.70;2.87;;;9.40;99.90;;;;;;5103196;28;20231;-80